createdAt,value
2018-12-17T00:03:00.000Z,98919
2018-12-17T00:08:00.000Z,98912
2018-12-17T00:13:00.000Z,98912
2018-12-17T00:18:00.000Z,98915
2018-12-17T00:23:00.000Z,98910
2018-12-17T00:28:00.000Z,98913
2018-12-17T00:33:00.000Z,98921
2018-12-17T00:38:00.000Z,98931
2018-12-17T00:43:00.000Z,98926
2018-12-17T00:48:00.000Z,98922
2018-12-17T00:53:00.000Z,98926
2018-12-17T00:58:00.000Z,98936
2018-12-17T01:03:00.000Z,98933
2018-12-17T01:08:00.000Z,98940
2018-12-17T01:13:00.000Z,98941
2018-12-17T01:18:00.000Z,98937
2018-12-17T01:23:00.000Z,98936
2018-12-17T01:28:00.000Z,98957
2018-12-17T01:33:00.000Z,98955
2018-12-17T01:38:00.000Z,98963
2018-12-17T01:43:00.000Z,98946
2018-12-17T01:48:00.000Z,98945
2018-12-17T01:53:00.000Z,98947
2018-12-17T01:58:00.000Z,98945
2018-12-17T02:03:00.000Z,98937
2018-12-17T02:08:00.000Z,98940
2018-12-17T02:13:00.000Z,98933
2018-12-17T02:18:00.000Z,98941
2018-12-17T02:23:00.000Z,98949
2018-12-17T02:28:00.000Z,98948
2018-12-17T02:33:00.000Z,98938
2018-12-17T02:38:00.000Z,98939
2018-12-17T02:43:00.000Z,98947
2018-12-17T02:48:00.000Z,98940
2018-12-17T02:53:00.000Z,98947
2018-12-17T02:58:00.000Z,98938
2018-12-17T03:03:00.000Z,98937
2018-12-17T03:08:00.000Z,98941
2018-12-17T03:13:00.000Z,98946
2018-12-17T03:18:00.000Z,98948
2018-12-17T03:23:00.000Z,98956
2018-12-17T03:28:00.000Z,98960
2018-12-17T03:33:00.000Z,98958
2018-12-17T03:38:00.000Z,98950
2018-12-17T03:43:00.000Z,98956
2018-12-17T03:48:00.000Z,98949
2018-12-17T03:53:00.000Z,98944
2018-12-17T03:58:00.000Z,98947
2018-12-17T04:03:00.000Z,98964
2018-12-17T04:09:00.000Z,98963
2018-12-17T04:14:00.000Z,98969
2018-12-17T04:19:00.000Z,98991
2018-12-17T04:24:00.000Z,98990
2018-12-17T04:29:00.000Z,99000
2018-12-17T04:34:00.000Z,99002
2018-12-17T04:39:00.000Z,98993
2018-12-17T04:44:00.000Z,98995
2018-12-17T04:49:00.000Z,98986
2018-12-17T04:54:00.000Z,98990
2018-12-17T04:59:00.000Z,98997
2018-12-17T05:04:00.000Z,99007
2018-12-17T05:09:00.000Z,99015
2018-12-17T05:14:00.000Z,99024
2018-12-17T05:19:00.000Z,99031
2018-12-17T05:24:00.000Z,99034
2018-12-17T05:29:00.000Z,99043
2018-12-17T05:34:00.000Z,99044
2018-12-17T05:39:00.000Z,99043
2018-12-17T05:44:00.000Z,99045
2018-12-17T05:49:00.000Z,99050
2018-12-17T05:54:00.000Z,99057
2018-12-17T05:59:00.000Z,99052
2018-12-17T06:04:00.000Z,99064
2018-12-17T06:09:00.000Z,99058
2018-12-17T06:14:00.000Z,99075
2018-12-17T06:19:00.000Z,99067
2018-12-17T06:24:00.000Z,99085
2018-12-17T06:29:00.000Z,99081
2018-12-17T06:34:00.000Z,99087
2018-12-17T06:39:00.000Z,99073
2018-12-17T06:44:00.000Z,99073
2018-12-17T06:49:00.000Z,99092
2018-12-17T06:54:00.000Z,99095
2018-12-17T06:59:00.000Z,99116
2018-12-17T07:04:00.000Z,99132
2018-12-17T07:09:00.000Z,99131
2018-12-17T07:14:00.000Z,99130
2018-12-17T07:19:00.000Z,99144
2018-12-17T07:24:00.000Z,99160
2018-12-17T07:29:00.000Z,99164
2018-12-17T07:34:00.000Z,99155
2018-12-17T07:39:00.000Z,99173
2018-12-17T07:44:00.000Z,99173
2018-12-17T07:49:00.000Z,99182
2018-12-17T07:54:00.000Z,99184
2018-12-17T07:59:00.000Z,99195
2018-12-17T08:04:00.000Z,99211
2018-12-17T08:09:00.000Z,99215
2018-12-17T08:14:00.000Z,99217
2018-12-17T08:19:00.000Z,99231
2018-12-17T08:25:00.000Z,99233
2018-12-17T08:30:00.000Z,99251
2018-12-17T08:35:00.000Z,99246
2018-12-17T08:40:00.000Z,99267
2018-12-17T08:45:00.000Z,99277
2018-12-17T08:50:00.000Z,99279
2018-12-17T08:55:00.000Z,99288
2018-12-17T09:00:00.000Z,99283
2018-12-17T09:05:00.000Z,99287
2018-12-17T09:10:00.000Z,99301
2018-12-17T09:15:00.000Z,99298
2018-12-17T09:20:00.000Z,99298
2018-12-17T09:25:00.000Z,99296
2018-12-17T09:30:00.000Z,99298
2018-12-17T09:35:00.000Z,99301
2018-12-17T09:40:00.000Z,99305
2018-12-17T09:45:00.000Z,99305
2018-12-17T09:50:00.000Z,99308
2018-12-17T09:55:00.000Z,99291
2018-12-17T10:00:00.000Z,99291
2018-12-17T10:05:00.000Z,99291
2018-12-17T10:10:00.000Z,99293
2018-12-17T10:15:00.000Z,99287
2018-12-17T10:20:00.000Z,99283
2018-12-17T10:25:00.000Z,99290
2018-12-17T10:30:00.000Z,99288
2018-12-17T10:35:00.000Z,99296
2018-12-17T10:40:00.000Z,99294
2018-12-17T10:45:00.000Z,99286
2018-12-17T10:50:00.000Z,99290
2018-12-17T10:55:00.000Z,99285
2018-12-17T11:00:00.000Z,99298
2018-12-17T11:05:00.000Z,99303
2018-12-17T11:10:00.000Z,99293
2018-12-17T11:15:00.000Z,99297
2018-12-17T11:20:00.000Z,99299
2018-12-17T11:25:00.000Z,99303
2018-12-17T11:30:00.000Z,99303
2018-12-17T11:35:00.000Z,99304
2018-12-17T11:40:00.000Z,99293
2018-12-17T11:45:00.000Z,99292
2018-12-17T11:50:00.000Z,99296
2018-12-17T11:55:00.000Z,99303
2018-12-17T12:00:00.000Z,99317
2018-12-17T12:05:00.000Z,99317
2018-12-17T12:10:00.000Z,99324
2018-12-17T12:15:00.000Z,99319
2018-12-17T12:20:00.000Z,99331
2018-12-17T12:25:00.000Z,99330
2018-12-17T12:30:00.000Z,99326
2018-12-17T12:36:00.000Z,99334
2018-12-17T12:41:00.000Z,99342
2018-12-17T12:46:00.000Z,99350
2018-12-17T12:51:00.000Z,99355
2018-12-17T12:56:00.000Z,99351
2018-12-17T13:01:00.000Z,99356
2018-12-17T13:06:00.000Z,99362
2018-12-17T13:11:00.000Z,99364
2018-12-17T13:16:00.000Z,99369
2018-12-17T13:21:00.000Z,99381
2018-12-17T13:26:00.000Z,99387
2018-12-17T13:31:00.000Z,99399
2018-12-17T13:36:00.000Z,99403
2018-12-17T13:41:00.000Z,99415
2018-12-17T13:46:00.000Z,99422
2018-12-17T13:51:00.000Z,99431
2018-12-17T13:56:00.000Z,99437
2018-12-17T14:01:00.000Z,99443
2018-12-17T14:06:00.000Z,99459
2018-12-17T14:11:00.000Z,99464
2018-12-17T14:16:00.000Z,99476
2018-12-17T14:21:00.000Z,99474
2018-12-17T14:26:00.000Z,99485
2018-12-17T14:31:00.000Z,99480
2018-12-17T14:36:00.000Z,99482
2018-12-17T14:41:00.000Z,99478
2018-12-17T14:46:00.000Z,99485
2018-12-17T14:51:00.000Z,99483
2018-12-17T14:56:00.000Z,99484
2018-12-17T15:01:00.000Z,99499
2018-12-17T15:06:00.000Z,99512
2018-12-17T15:11:00.000Z,99502
2018-12-17T15:16:00.000Z,99515
2018-12-17T15:21:00.000Z,99518
2018-12-17T15:26:00.000Z,99515
2018-12-17T15:31:00.000Z,99526
2018-12-17T15:36:00.000Z,99536
2018-12-17T15:41:00.000Z,99537
2018-12-17T15:46:00.000Z,99549
2018-12-17T15:51:00.000Z,99557
2018-12-17T15:56:00.000Z,99569
2018-12-17T16:01:00.000Z,99580
2018-12-17T16:06:00.000Z,99594
2018-12-17T16:11:00.000Z,99604
2018-12-17T16:16:00.000Z,99609
2018-12-17T16:21:00.000Z,99618
2018-12-17T16:26:00.000Z,99620
2018-12-17T16:31:00.000Z,99622
2018-12-17T16:36:00.000Z,99623
2018-12-17T16:41:00.000Z,99618
2018-12-17T16:46:00.000Z,99631
2018-12-17T16:52:00.000Z,99627
2018-12-17T16:57:00.000Z,99640
2018-12-17T17:02:00.000Z,99650
2018-12-17T17:07:00.000Z,99648
2018-12-17T17:12:00.000Z,99665
2018-12-17T17:17:00.000Z,99663
2018-12-17T17:22:00.000Z,99667
2018-12-17T17:27:00.000Z,99661
2018-12-17T17:32:00.000Z,99679
2018-12-17T17:37:00.000Z,99680
2018-12-17T17:42:00.000Z,99696
2018-12-17T17:47:00.000Z,99703
2018-12-17T17:52:00.000Z,99694
2018-12-17T17:57:00.000Z,99712
2018-12-17T18:02:00.000Z,99693
2018-12-17T18:07:00.000Z,99720
2018-12-17T18:12:00.000Z,99719
2018-12-17T18:17:00.000Z,99725
2018-12-17T18:22:00.000Z,99723
2018-12-17T18:27:00.000Z,99737
2018-12-17T18:32:00.000Z,99739
2018-12-17T18:37:00.000Z,99754
2018-12-17T18:42:00.000Z,99756
2018-12-17T18:47:00.000Z,99754
2018-12-17T18:52:00.000Z,99757
2018-12-17T18:57:00.000Z,99756
2018-12-17T19:02:00.000Z,99754
2018-12-17T19:07:00.000Z,99750
2018-12-17T19:12:00.000Z,99744
2018-12-17T19:17:00.000Z,99751
2018-12-17T19:22:00.000Z,99760
2018-12-17T19:27:00.000Z,99754
2018-12-17T19:32:00.000Z,99747
2018-12-17T19:37:00.000Z,99751
2018-12-17T19:42:00.000Z,99760
2018-12-17T19:47:00.000Z,99757
2018-12-17T19:52:00.000Z,99756
2018-12-17T19:57:00.000Z,99746
2018-12-17T20:02:00.000Z,99755
2018-12-17T20:07:00.000Z,99764
2018-12-17T20:12:00.000Z,99741
2018-12-17T20:17:00.000Z,99749
2018-12-17T20:22:00.000Z,99757
2018-12-17T20:27:00.000Z,99742
2018-12-17T20:32:00.000Z,99742
2018-12-17T20:37:00.000Z,99743
2018-12-17T20:42:00.000Z,99731
2018-12-17T20:47:00.000Z,99739
2018-12-17T20:52:00.000Z,99732
2018-12-17T20:57:00.000Z,99758
2018-12-17T21:02:00.000Z,99734
2018-12-17T21:08:00.000Z,99733
2018-12-17T21:13:00.000Z,99742
2018-12-17T21:18:00.000Z,99746
2018-12-17T21:23:00.000Z,99766
2018-12-17T21:28:00.000Z,99764
2018-12-17T21:33:00.000Z,99760
2018-12-17T21:38:00.000Z,99773
2018-12-17T21:43:00.000Z,99771
2018-12-17T21:48:00.000Z,99775
2018-12-17T21:53:00.000Z,99777
2018-12-17T21:58:00.000Z,99777
2018-12-17T22:03:00.000Z,99789
2018-12-17T22:08:00.000Z,99792
2018-12-17T22:13:00.000Z,99782
2018-12-17T22:18:00.000Z,99783
2018-12-17T22:23:00.000Z,99786
2018-12-17T22:28:00.000Z,99786
2018-12-17T22:33:00.000Z,99789
2018-12-17T22:38:00.000Z,99792
2018-12-17T22:43:00.000Z,99781
2018-12-17T22:48:00.000Z,99781
2018-12-17T22:53:00.000Z,99800
2018-12-17T22:58:00.000Z,99784
2018-12-17T23:03:00.000Z,99785
2018-12-17T23:08:00.000Z,99776
2018-12-17T23:13:00.000Z,99796
2018-12-17T23:18:00.000Z,99788
2018-12-17T23:23:00.000Z,99784
2018-12-17T23:28:00.000Z,99768
2018-12-17T23:33:00.000Z,99768
2018-12-17T23:38:00.000Z,99776
2018-12-17T23:43:00.000Z,99791
2018-12-17T23:48:00.000Z,99785
2018-12-17T23:53:00.000Z,99783
2018-12-17T23:58:00.000Z,99792
